Time;durP1;ratioP1;P1;durP2;ratioP2;P2;SDS_P1;SDS_P2;PMS_P1;PMS_P2;Temp;Humidity;BMP_temperature;BMP_pressure;BME280_temperature;BME280_humidity;BME280_pressure;Samples;Min_cycle;Max_cycle;Signal;HPM_P1;HPM_P2
2021/03/17 00:07:29;;;;;;;35.2;31.4;;;;;;;2.84;100;98396.08;;;;
2021/03/17 00:17:27;;;;;;;40.7;33.1;;;;;;;2.74;100;98392.59;;;;
2021/03/17 00:27:24;;;;;;;39.5;29.1;;;;;;;2.72;100;98394.69;;;;
2021/03/17 00:37:22;;;;;;;34;30.3;;;;;;;2.7;100;98388.84;;;;
2021/03/17 00:47:20;;;;;;;41;31.5;;;;;;;2.66;100;98380.58;;;;
2021/03/17 00:57:18;;;;;;;48.7;36.9;;;;;;;2.63;100;98378.45;;;;
2021/03/17 01:07:16;;;;;;;35.3;30.8;;;;;;;2.65;100;98389.62;;;;
2021/03/17 01:17:14;;;;;;;45.8;31.4;;;;;;;2.67;100;98387.52;;;;
2021/03/17 01:27:12;;;;;;;42.6;29.8;;;;;;;2.62;100;98384.82;;;;
2021/03/17 01:37:10;;;;;;;41.2;29.7;;;;;;;2.72;100;98392.84;;;;
2021/03/17 01:47:08;;;;;;;36.1;27.2;;;;;;;2.66;100;98385.1;;;;
2021/03/17 01:57:05;;;;;;;35;30;;;;;;;2.63;100;98380.3;;;;
2021/03/17 02:07:04;;;;;;;28;24.5;;;;;;;2.52;100;98388.25;;;;
2021/03/17 02:17:01;;;;;;;37.6;27.6;;;;;;;2.55;100;98384.27;;;;
2021/03/17 02:27:09;;;;;;;36;31.1;;;;;;;2.45;100;98385.03;;;;
2021/03/17 02:36:57;;;;;;;37.9;28.7;;;;;;;2.5;100;98376.25;;;;
2021/03/17 02:46:55;;;;;;;41.5;27.7;;;;;;;2.49;100;98377.33;;;;
2021/03/17 02:56:56;;;;;;;31.3;26.6;;;;;;;2.47;100;98376.77;;;;
2021/03/17 03:06:54;;;;;;;36.6;28.3;;;;;;;2.44;100;98379.95;;;;
2021/03/17 03:16:49;;;;;;;30.5;26.1;;;;;;;2.39;100;98369.31;;;;
2021/03/17 03:26:47;;;;;;;36.5;29.4;;;;;;;2.34;100;98370.08;;;;
2021/03/17 03:36:44;;;;;;;32.9;24;;;;;;;2.26;100;98380.4;;;;
2021/03/17 03:46:42;;;;;;;34.8;29.7;;;;;;;2.28;100;98388.94;;;;
2021/03/17 03:56:40;;;;;;;39;29.1;;;;;;;2.27;100;98389.98;;;;
2021/03/17 04:06:38;;;;;;;37.7;27.9;;;;;;;2.41;100;98396.44;;;;
2021/03/17 04:16:36;;;;;;;33.9;28.6;;;;;;;2.42;100;98396.19;;;;
2021/03/17 04:26:34;;;;;;;43.6;28.3;;;;;;;2.43;100;98387.13;;;;
2021/03/17 04:36:33;;;;;;;31.1;26.5;;;;;;;2.44;100;98403.89;;;;
2021/03/17 04:46:35;;;;;;;37.4;28.3;;;;;;;2.29;100;98401.18;;;;
2021/03/17 04:56:27;;;;;;;38.1;29;;;;;;;2.36;100;98402.52;;;;
2021/03/17 05:06:25;;;;;;;47.1;32.5;;;;;;;2.4;100;98411.59;;;;
2021/03/17 05:16:23;;;;;;;36.9;25.5;;;;;;;2.45;100;98416.14;;;;
2021/03/17 05:26:21;;;;;;;43;33.5;;;;;;;2.43;100;98418.27;;;;
2021/03/17 05:36:19;;;;;;;48.6;30.3;;;;;;;2.47;100;98428.11;;;;
2021/03/17 05:46:17;;;;;;;37.8;25.4;;;;;;;2.53;100;98431.61;;;;
2021/03/17 05:56:15;;;;;;;29.6;24.9;;;;;;;2.58;99.86523;98433.48;;;;
2021/03/17 06:06:13;;;;;;;32.5;24.5;;;;;;;2.63;99.19531;98434.31;;;;
2021/03/17 06:16:11;;;;;;;31.4;24.7;;;;;;;2.68;99.20801;98439.64;;;;
2021/03/17 06:26:09;;;;;;;30.8;25.5;;;;;;;2.98;97.6123;98460.27;;;;
2021/03/17 06:36:07;;;;;;;30.7;25.7;;;;;;;3.1;96.74609;98462.68;;;;
2021/03/17 06:46:04;;;;;;;26.3;23.3;;;;;;;3.31;95.32715;98467.8;;;;
2021/03/17 06:56:02;;;;;;;29.1;23.9;;;;;;;3.57;94.49121;98468.66;;;;
2021/03/17 07:06:00;;;;;;;26.2;22.9;;;;;;;3.54;93.41406;98479.81;;;;
2021/03/17 07:15:58;;;;;;;28.7;22.4;;;;;;;3.72;93.57617;98481.98;;;;
2021/03/17 07:25:56;;;;;;;33.3;22;;;;;;;3.89;91.16699;98482.52;;;;
2021/03/17 07:35:55;;;;;;;25.8;17.5;;;;;;;4.17;89.66504;98485.7;;;;
2021/03/17 07:45:53;;;;;;;24.5;20.2;;;;;;;4.52;90.0498;98489.13;;;;
2021/03/17 07:55:51;;;;;;;24.5;19;;;;;;;4.78;87.58496;98497.88;;;;
2021/03/17 08:05:49;;;;;;;19.6;15.7;;;;;;;4.79;84.38965;98502.13;;;;
2021/03/17 08:15:47;;;;;;;18.5;14.6;;;;;;;4.71;83.55078;98517.92;;;;
2021/03/17 08:25:46;;;;;;;20.6;18.5;;;;;;;5.27;84.48438;98518.52;;;;
2021/03/17 08:35:49;;;;;;;24.4;18.8;;;;;;;5.24;82.58789;98517.17;;;;
2021/03/17 08:45:42;;;;;;;17.2;12;;;;;;;5.6;79.49316;98525.81;;;;
2021/03/17 08:55:40;;;;;;;17.6;13.2;;;;;;;5.37;78.98242;98532.64;;;;
2021/03/17 09:05:39;;;;;;;21.8;14.7;;;;;;;5.5;79.47461;98529.36;;;;
2021/03/17 09:15:44;;;;;;;17.3;11.8;;;;;;;5.64;77.72656;98536.76;;;;
2021/03/17 09:25:36;;;;;;;15.4;12;;;;;;;5.53;77.5625;98533.34;;;;
2021/03/17 09:35:34;;;;;;;16;12.5;;;;;;;5.29;74.85547;98541.22;;;;
2021/03/17 09:45:32;;;;;;;14.9;11.7;;;;;;;5.85;75.68945;98533.69;;;;
2021/03/17 09:55:36;;;;;;;17.8;13.4;;;;;;;5.58;76.21191;98534.13;;;;
2021/03/17 10:05:29;;;;;;;14.9;10.8;;;;;;;5.09;73.57227;98554.66;;;;
2021/03/17 10:15:27;;;;;;;18.6;11.6;;;;;;;5.86;73.06543;98545.22;;;;
2021/03/17 10:25:25;;;;;;;16.8;10.1;;;;;;;5.22;72.16602;98545.25;;;;
2021/03/17 10:35:23;;;;;;;14;7.8;;;;;;;5.63;72.14551;98541.3;;;;
2021/03/17 10:45:21;;;;;;;16.1;9.6;;;;;;;5.92;70.15918;98536.88;;;;
2021/03/17 10:55:20;;;;;;;14;11.1;;;;;;;5.66;70.33984;98529.28;;;;
2021/03/17 11:05:18;;;;;;;15.5;10.4;;;;;;;5.88;69.52637;98535.84;;;;
2021/03/17 11:15:16;;;;;;;16.9;13;;;;;;;5.35;69.58691;98521.41;;;;
2021/03/17 11:25:14;;;;;;;14.4;10.4;;;;;;;5.49;68.61523;98533.09;;;;
2021/03/17 11:35:13;;;;;;;12.6;7.7;;;;;;;5.77;68.54688;98528.92;;;;
2021/03/17 11:45:11;;;;;;;10.9;8.9;;;;;;;5.79;68.70605;98525.98;;;;
2021/03/17 11:55:09;;;;;;;13.7;9.4;;;;;;;6.03;65.99219;98517.02;;;;
2021/03/17 12:05:08;;;;;;;17.4;10.5;;;;;;;6.23;66.12012;98523.27;;;;
2021/03/17 12:15:06;;;;;;;15.4;8.8;;;;;;;6.21;65.27637;98520.08;;;;
2021/03/17 12:25:05;;;;;;;13.9;9.1;;;;;;;6.05;66.25195;98533.57;;;;
2021/03/17 12:35:02;;;;;;;8.1;6.5;;;;;;;5.76;64.83984;98526.54;;;;
2021/03/17 12:45:01;;;;;;;13.8;8.6;;;;;;;5.69;66.08398;98550.91;;;;
2021/03/17 12:54:59;;;;;;;12.4;7.8;;;;;;;5.14;69.21875;98559.97;;;;
2021/03/17 13:04:57;;;;;;;12.7;7.6;;;;;;;4.73;68.90527;98583.31;;;;
2021/03/17 13:14:55;;;;;;;8.3;6.4;;;;;;;3.94;71.90625;98593.7;;;;
2021/03/17 13:24:53;;;;;;;9.2;5.9;;;;;;;3.56;72.55469;98600.27;;;;
2021/03/17 13:34:51;;;;;;;10.3;6.2;;;;;;;4.24;71.05664;98612.41;;;;
2021/03/17 13:44:49;;;;;;;6.3;5.1;;;;;;;3.98;71.49121;98621.45;;;;
2021/03/17 13:54:47;;;;;;;12.9;7.6;;;;;;;3.62;72.96582;98635.72;;;;
2021/03/17 14:04:46;;;;;;;10.5;7.2;;;;;;;3.59;72.43848;98653.04;;;;
2021/03/17 14:14:43;;;;;;;9.3;7.6;;;;;;;3.53;72.39648;98646.91;;;;
2021/03/17 14:24:41;;;;;;;12.2;7.9;;;;;;;3.36;72.32227;98656.95;;;;
2021/03/17 14:34:39;;;;;;;16.8;12.6;;;;;;;3.27;73.86133;98650.48;;;;
2021/03/17 14:44:37;;;;;;;11.4;7.5;;;;;;;3.24;74.36719;98656.33;;;;
2021/03/17 14:54:35;;;;;;;7.3;6.2;;;;;;;3.29;73.77539;98652.91;;;;
2021/03/17 15:04:34;;;;;;;11.5;6.5;;;;;;;3.26;74.20215;98661.41;;;;
2021/03/17 15:14:33;;;;;;;33.3;26;;;;;;;3.17;75.78516;98662.95;;;;
2021/03/17 15:24:29;;;;;;;11.7;7.7;;;;;;;3.22;76.36035;98668.31;;;;
2021/03/17 15:34:27;;;;;;;15.8;12.2;;;;;;;3.2;77.44336;98686.39;;;;
2021/03/17 15:44:25;;;;;;;21.5;11.8;;;;;;;3.05;78.23828;98690.55;;;;
2021/03/17 15:54:23;;;;;;;11.7;9.3;;;;;;;3.02;77.88867;98693.73;;;;
2021/03/17 16:04:21;;;;;;;10.4;9.3;;;;;;;3.07;77.25293;98700.97;;;;
2021/03/17 16:14:19;;;;;;;17.3;11.9;;;;;;;3.07;77.44238;98710.81;;;;
2021/03/17 16:24:17;;;;;;;14.4;9.4;;;;;;;2.94;78.18359;98714.72;;;;
2021/03/17 16:34:15;;;;;;;13.6;10.2;;;;;;;2.87;78.12695;98728.24;;;;
2021/03/17 16:44:13;;;;;;;20.2;13;;;;;;;2.88;78.77051;98742.36;;;;
2021/03/17 16:54:11;;;;;;;16.5;12.9;;;;;;;2.8;79.77637;98756.93;;;;
2021/03/17 17:04:09;;;;;;;15.9;12.3;;;;;;;2.76;80.97461;98758.48;;;;
2021/03/17 17:14:07;;;;;;;19.1;16.1;;;;;;;2.72;81.62012;98770.68;;;;
2021/03/17 17:24:05;;;;;;;19.2;12.5;;;;;;;2.72;82.55859;98777.86;;;;
2021/03/17 17:34:03;;;;;;;16.4;14.2;;;;;;;2.7;82.98633;98778.13;;;;
2021/03/17 17:44:01;;;;;;;14.6;12.9;;;;;;;2.63;83.76855;98796.15;;;;
2021/03/17 17:53:59;;;;;;;16.3;13.8;;;;;;;2.58;84.71973;98797.94;;;;
2021/03/17 18:03:57;;;;;;;19.2;16.2;;;;;;;2.56;85.10449;98806.19;;;;
2021/03/17 18:13:54;;;;;;;27.6;19.2;;;;;;;2.57;85.01758;98810.42;;;;
2021/03/17 18:23:52;;;;;;;19.7;15.7;;;;;;;2.59;84.90918;98810.2;;;;
2021/03/17 18:33:50;;;;;;;19.5;14.6;;;;;;;2.57;85.12695;98812.31;;;;
2021/03/17 18:43:48;;;;;;;14.7;12.3;;;;;;;2.47;85.40723;98813.79;;;;
2021/03/17 18:53:46;;;;;;;14.5;12.3;;;;;;;2.43;85.74219;98810.02;;;;
2021/03/17 19:03:44;;;;;;;26.1;17.3;;;;;;;2.43;85.89453;98817.22;;;;
2021/03/17 19:13:42;;;;;;;22.5;15.3;;;;;;;2.48;85.67383;98820.73;;;;
2021/03/17 19:23:40;;;;;;;23.5;17;;;;;;;2.52;85.61426;98811.2;;;;
2021/03/17 19:33:41;;;;;;;22.4;15.7;;;;;;;2.48;85.47461;98818.06;;;;
2021/03/17 19:43:36;;;;;;;26.7;17.7;;;;;;;2.42;86.54297;98820.92;;;;
2021/03/17 19:53:34;;;;;;;30;20;;;;;;;2.34;87.36523;98829.33;;;;
2021/03/17 20:03:34;;;;;;;24.9;20;;;;;;;2.34;87.44238;98824.01;;;;
2021/03/17 20:13:29;;;;;;;21.6;15.8;;;;;;;2.32;87.4834;98828.78;;;;
2021/03/17 20:23:27;;;;;;;23.7;17.6;;;;;;;2.12;87.79785;98805.39;;;;
2021/03/17 20:33:26;;;;;;;25.1;16.1;;;;;;;2.25;88.46289;98825.5;;;;
2021/03/17 20:43:23;;;;;;;28;21.4;;;;;;;2.21;88.90527;98827.05;;;;
2021/03/17 20:53:21;;;;;;;24.8;16.9;;;;;;;2.23;88.86523;98823.08;;;;
2021/03/17 21:03:19;;;;;;;31.5;20.9;;;;;;;2.23;89.0752;98827.59;;;;
2021/03/17 21:13:17;;;;;;;32.3;23.9;;;;;;;2.08;91.3916;98836.2;;;;
2021/03/17 21:23:14;;;;;;;25.6;17.6;;;;;;;1.95;92.51855;98833.88;;;;
2021/03/17 21:33:13;;;;;;;22.2;12.6;;;;;;;2.03;92.05371;98820.98;;;;
2021/03/17 21:43:12;;;;;;;14.7;11.5;;;;;;;1.92;92.76465;98823.74;;;;
2021/03/17 21:53:10;;;;;;;17.5;12.1;;;;;;;2.03;91.89746;98825.48;;;;
2021/03/17 22:03:06;;;;;;;20.2;12.9;;;;;;;1.92;91.66602;98819.23;;;;
2021/03/17 22:13:04;;;;;;;17.5;13.6;;;;;;;1.89;91.43945;98827.7;;;;
2021/03/17 22:23:01;;;;;;;17.6;12.1;;;;;;;1.91;91.66406;98827.44;;;;
2021/03/17 22:33:00;;;;;;;12.7;10;;;;;;;1.76;92.00586;98819.28;;;;
2021/03/17 22:42:57;;;;;;;19.2;9.5;;;;;;;1.74;90.80078;98818.7;;;;
2021/03/17 22:52:55;;;;;;;13.2;9.4;;;;;;;1.76;90.83887;98816.63;;;;
2021/03/17 23:02:53;;;;;;;12.8;9.9;;;;;;;1.62;90.98633;98810.86;;;;
2021/03/17 23:12:50;;;;;;;12.2;9.8;;;;;;;1.63;90.89844;98806.35;;;;
2021/03/17 23:22:48;;;;;;;25.2;13.7;;;;;;;1.63;90.62402;98809.81;;;;
2021/03/17 23:32:46;;;;;;;9.7;8;;;;;;;1.66;89.87207;98814.64;;;;
2021/03/17 23:42:44;;;;;;;15.5;7.3;;;;;;;1.62;89.78711;98816.16;;;;
2021/03/17 23:52:42;;;;;;;13.4;8;;;;;;;1.7;89.52734;98820.27;;;;
